sensor_id;sensor_type;location;lat;lon;timestamp;temperature;humidity
56336;DHT22;42241;53.510;10.170;2022-11-11T00:00:31;12.00;99.90
56336;DHT22;42241;53.510;10.170;2022-11-11T00:02:56;12.00;99.90
56336;DHT22;42241;53.510;10.170;2022-11-11T00:05:22;12.00;99.90
56336;DHT22;42241;53.510;10.170;2022-11-11T00:07:48;12.00;99.90
56336;DHT22;42241;53.510;10.170;2022-11-11T00:10:14;12.00;99.90
56336;DHT22;42241;53.510;10.170;2022-11-11T00:12:39;12.00;99.90
56336;DHT22;42241;53.510;10.170;2022-11-11T00:15:05;12.00;99.90
56336;DHT22;42241;53.510;10.170;2022-11-11T00:17:32;12.00;99.90
56336;DHT22;42241;53.510;10.170;2022-11-11T00:20:16;12.10;99.90
56336;DHT22;42241;53.510;10.170;2022-11-11T00:23:00;12.10;99.90
56336;DHT22;42241;53.510;10.170;2022-11-11T00:25:44;12.10;99.90
56336;DHT22;42241;53.510;10.170;2022-11-11T00:28:09;12.00;99.90
56336;DHT22;42241;53.510;10.170;2022-11-11T00:30:35;12.00;99.90
56336;DHT22;42241;53.510;10.170;2022-11-11T00:33:01;12.00;99.90
56336;DHT22;42241;53.510;10.170;2022-11-11T00:35:26;12.00;99.90
56336;DHT22;42241;53.510;10.170;2022-11-11T00:38:11;12.00;99.90
56336;DHT22;42241;53.510;10.170;2022-11-11T00:41:00;12.00;99.90
56336;DHT22;42241;53.510;10.170;2022-11-11T00:43:25;12.00;99.90
56336;DHT22;42241;53.510;10.170;2022-11-11T00:45:51;12.00;99.90
56336;DHT22;42241;53.510;10.170;2022-11-11T00:48:16;12.00;99.90
56336;DHT22;42241;53.510;10.170;2022-11-11T00:51:01;12.00;99.90
56336;DHT22;42241;53.510;10.170;2022-11-11T00:53:30;12.00;99.90
56336;DHT22;42241;53.510;10.170;2022-11-11T00:55:57;12.00;99.90
56336;DHT22;42241;53.510;10.170;2022-11-11T00:58:22;12.00;99.90
56336;DHT22;42241;53.510;10.170;2022-11-11T01:00:49;12.00;99.90
56336;DHT22;42241;53.510;10.170;2022-11-11T01:03:17;12.00;99.90
56336;DHT22;42241;53.510;10.170;2022-11-11T01:05:43;12.00;99.90
56336;DHT22;42241;53.510;10.170;2022-11-11T01:08:08;12.00;99.90
56336;DHT22;42241;53.510;10.170;2022-11-11T01:10:35;12.00;99.90
56336;DHT22;42241;53.510;10.170;2022-11-11T01:13:11;12.00;99.90
56336;DHT22;42241;53.510;10.170;2022-11-11T01:15:38;12.00;99.90
56336;DHT22;42241;53.510;10.170;2022-11-11T01:18:04;12.00;99.90
56336;DHT22;42241;53.510;10.170;2022-11-11T01:20:30;12.00;99.90
56336;DHT22;42241;53.510;10.170;2022-11-11T01:22:55;12.00;99.90
56336;DHT22;42241;53.510;10.170;2022-11-11T01:25:22;12.00;99.90
56336;DHT22;42241;53.510;10.170;2022-11-11T01:27:47;12.00;99.90
56336;DHT22;42241;53.510;10.170;2022-11-11T01:30:13;12.00;99.90
56336;DHT22;42241;53.510;10.170;2022-11-11T01:32:39;12.00;99.90
56336;DHT22;42241;53.510;10.170;2022-11-11T01:35:05;12.00;99.90
56336;DHT22;42241;53.510;10.170;2022-11-11T01:37:34;12.00;99.90
56336;DHT22;42241;53.510;10.170;2022-11-11T01:40:00;12.00;99.90
56336;DHT22;42241;53.510;10.170;2022-11-11T01:42:25;12.00;99.90
56336;DHT22;42241;53.510;10.170;2022-11-11T01:44:51;12.00;99.90
56336;DHT22;42241;53.510;10.170;2022-11-11T01:47:17;11.90;99.90
56336;DHT22;42241;53.510;10.170;2022-11-11T01:49:57;12.00;99.90
56336;DHT22;42241;53.510;10.170;2022-11-11T01:52:29;12.00;99.90
56336;DHT22;42241;53.510;10.170;2022-11-11T01:57:23;12.00;99.90
56336;DHT22;42241;53.510;10.170;2022-11-11T01:59:52;12.00;99.90
56336;DHT22;42241;53.510;10.170;2022-11-11T02:02:26;12.00;99.90
56336;DHT22;42241;53.510;10.170;2022-11-11T02:04:53;12.00;99.90
56336;DHT22;42241;53.510;10.170;2022-11-11T02:07:38;12.00;99.90
56336;DHT22;42241;53.510;10.170;2022-11-11T02:10:07;11.90;99.90
56336;DHT22;42241;53.510;10.170;2022-11-11T02:12:33;11.90;99.90
56336;DHT22;42241;53.510;10.170;2022-11-11T02:15:17;11.90;99.90
56336;DHT22;42241;53.510;10.170;2022-11-11T02:17:43;11.90;99.90
56336;DHT22;42241;53.510;10.170;2022-11-11T02:20:11;11.90;99.90
56336;DHT22;42241;53.510;10.170;2022-11-11T02:22:44;11.90;99.90
56336;DHT22;42241;53.510;10.170;2022-11-11T02:25:13;11.90;99.90
56336;DHT22;42241;53.510;10.170;2022-11-11T02:27:41;11.80;99.90
56336;DHT22;42241;53.510;10.170;2022-11-11T02:30:09;11.80;99.90
56336;DHT22;42241;53.510;10.170;2022-11-11T02:32:43;11.70;99.90
56336;DHT22;42241;53.510;10.170;2022-11-11T02:35:13;11.80;99.90
56336;DHT22;42241;53.510;10.170;2022-11-11T02:37:39;11.70;99.90
56336;DHT22;42241;53.510;10.170;2022-11-11T02:40:06;11.70;99.90
56336;DHT22;42241;53.510;10.170;2022-11-11T02:42:33;11.70;99.90
56336;DHT22;42241;53.510;10.170;2022-11-11T02:44:59;11.70;99.90
56336;DHT22;42241;53.510;10.170;2022-11-11T02:47:25;11.70;99.90
56336;DHT22;42241;53.510;10.170;2022-11-11T02:49:51;11.60;99.90
56336;DHT22;42241;53.510;10.170;2022-11-11T02:52:17;11.60;99.90
56336;DHT22;42241;53.510;10.170;2022-11-11T02:54:42;11.60;99.90
56336;DHT22;42241;53.510;10.170;2022-11-11T02:57:08;11.60;99.90
56336;DHT22;42241;53.510;10.170;2022-11-11T02:59:39;11.60;99.90
56336;DHT22;42241;53.510;10.170;2022-11-11T03:02:05;11.60;99.90
56336;DHT22;42241;53.510;10.170;2022-11-11T03:04:31;11.60;99.90
56336;DHT22;42241;53.510;10.170;2022-11-11T03:06:56;11.60;99.90
56336;DHT22;42241;53.510;10.170;2022-11-11T03:09:22;11.60;99.90
56336;DHT22;42241;53.510;10.170;2022-11-11T03:11:47;11.60;99.90
56336;DHT22;42241;53.510;10.170;2022-11-11T03:14:13;11.50;99.90
56336;DHT22;42241;53.510;10.170;2022-11-11T03:16:39;11.50;99.90
56336;DHT22;42241;53.510;10.170;2022-11-11T03:19:23;11.50;99.90
56336;DHT22;42241;53.510;10.170;2022-11-11T03:21:48;11.60;99.90
56336;DHT22;42241;53.510;10.170;2022-11-11T03:24:14;11.60;99.90
56336;DHT22;42241;53.510;10.170;2022-11-11T03:26:39;11.60;99.90
56336;DHT22;42241;53.510;10.170;2022-11-11T03:29:05;11.60;99.90
56336;DHT22;42241;53.510;10.170;2022-11-11T03:31:31;11.60;99.90
56336;DHT22;42241;53.510;10.170;2022-11-11T03:33:56;11.50;99.90
56336;DHT22;42241;53.510;10.170;2022-11-11T03:36:42;11.50;99.90
56336;DHT22;42241;53.510;10.170;2022-11-11T03:39:26;11.40;99.90
56336;DHT22;42241;53.510;10.170;2022-11-11T03:41:53;11.40;99.90
56336;DHT22;42241;53.510;10.170;2022-11-11T03:44:18;11.40;99.90
56336;DHT22;42241;53.510;10.170;2022-11-11T03:46:44;11.40;99.90
56336;DHT22;42241;53.510;10.170;2022-11-11T03:49:10;11.40;99.90
56336;DHT22;42241;53.510;10.170;2022-11-11T03:51:35;11.40;99.90
56336;DHT22;42241;53.510;10.170;2022-11-11T03:54:01;11.40;99.90
56336;DHT22;42241;53.510;10.170;2022-11-11T03:56:26;11.40;99.90
56336;DHT22;42241;53.510;10.170;2022-11-11T03:58:52;11.40;99.90
56336;DHT22;42241;53.510;10.170;2022-11-11T04:01:17;11.40;99.90
56336;DHT22;42241;53.510;10.170;2022-11-11T04:04:01;11.40;99.90
56336;DHT22;42241;53.510;10.170;2022-11-11T04:06:45;11.40;99.90
56336;DHT22;42241;53.510;10.170;2022-11-11T04:09:30;11.40;99.90
56336;DHT22;42241;53.510;10.170;2022-11-11T04:12:14;11.40;99.90
56336;DHT22;42241;53.510;10.170;2022-11-11T04:14:40;11.40;99.90
56336;DHT22;42241;53.510;10.170;2022-11-11T04:17:24;11.40;99.90
56336;DHT22;42241;53.510;10.170;2022-11-11T04:19:49;11.40;99.90
56336;DHT22;42241;53.510;10.170;2022-11-11T04:22:38;11.40;99.90
56336;DHT22;42241;53.510;10.170;2022-11-11T04:25:04;11.40;99.90
56336;DHT22;42241;53.510;10.170;2022-11-11T04:27:48;11.40;99.90
56336;DHT22;42241;53.510;10.170;2022-11-11T04:30:34;11.30;99.90
56336;DHT22;42241;53.510;10.170;2022-11-11T04:32:59;11.30;99.90
56336;DHT22;42241;53.510;10.170;2022-11-11T04:35:25;11.40;99.90
56336;DHT22;42241;53.510;10.170;2022-11-11T04:37:50;11.30;99.90
56336;DHT22;42241;53.510;10.170;2022-11-11T04:40:16;11.30;99.90
56336;DHT22;42241;53.510;10.170;2022-11-11T04:43:01;11.20;99.90
56336;DHT22;42241;53.510;10.170;2022-11-11T04:45:26;11.20;99.90
56336;DHT22;42241;53.510;10.170;2022-11-11T04:50:17;11.10;99.90
56336;DHT22;42241;53.510;10.170;2022-11-11T04:52:43;11.10;99.90
56336;DHT22;42241;53.510;10.170;2022-11-11T04:55:09;11.10;99.90
56336;DHT22;42241;53.510;10.170;2022-11-11T04:57:53;11.10;99.90
56336;DHT22;42241;53.510;10.170;2022-11-11T05:00:19;11.20;99.90
56336;DHT22;42241;53.510;10.170;2022-11-11T05:02:44;11.20;99.90
56336;DHT22;42241;53.510;10.170;2022-11-11T05:05:29;11.20;99.90
56336;DHT22;42241;53.510;10.170;2022-11-11T05:08:14;11.20;99.90
56336;DHT22;42241;53.510;10.170;2022-11-11T05:10:58;11.20;99.90
56336;DHT22;42241;53.510;10.170;2022-11-11T05:13:25;11.10;99.90
56336;DHT22;42241;53.510;10.170;2022-11-11T05:16:13;11.00;99.90
56336;DHT22;42241;53.510;10.170;2022-11-11T05:18:59;11.10;99.90
56336;DHT22;42241;53.510;10.170;2022-11-11T05:21:43;11.10;99.90
56336;DHT22;42241;53.510;10.170;2022-11-11T05:24:09;11.00;99.90
56336;DHT22;42241;53.510;10.170;2022-11-11T05:26:53;11.00;99.90
56336;DHT22;42241;53.510;10.170;2022-11-11T05:29:19;11.00;99.90
56336;DHT22;42241;53.510;10.170;2022-11-11T05:31:44;10.90;99.90
56336;DHT22;42241;53.510;10.170;2022-11-11T05:34:10;10.90;99.90
56336;DHT22;42241;53.510;10.170;2022-11-11T05:36:36;10.90;99.90
56336;DHT22;42241;53.510;10.170;2022-11-11T05:39:01;10.90;99.90
56336;DHT22;42241;53.510;10.170;2022-11-11T05:41:27;10.90;99.90
56336;DHT22;42241;53.510;10.170;2022-11-11T05:43:52;10.90;99.90
56336;DHT22;42241;53.510;10.170;2022-11-11T05:46:18;10.90;99.90
56336;DHT22;42241;53.510;10.170;2022-11-11T05:48:43;10.90;99.90
56336;DHT22;42241;53.510;10.170;2022-11-11T05:51:27;10.90;99.90
56336;DHT22;42241;53.510;10.170;2022-11-11T05:53:53;10.80;99.90
56336;DHT22;42241;53.510;10.170;2022-11-11T05:56:19;10.70;99.90
56336;DHT22;42241;53.510;10.170;2022-11-11T05:58:44;10.70;99.90
56336;DHT22;42241;53.510;10.170;2022-11-11T06:01:10;10.70;99.90
56336;DHT22;42241;53.510;10.170;2022-11-11T06:03:35;10.80;99.90
56336;DHT22;42241;53.510;10.170;2022-11-11T06:06:01;10.80;99.90
56336;DHT22;42241;53.510;10.170;2022-11-11T06:08:26;10.70;99.90
56336;DHT22;42241;53.510;10.170;2022-11-11T06:10:52;10.80;99.90
56336;DHT22;42241;53.510;10.170;2022-11-11T06:13:21;10.80;99.90
56336;DHT22;42241;53.510;10.170;2022-11-11T06:15:46;10.80;99.90
56336;DHT22;42241;53.510;10.170;2022-11-11T06:18:12;10.80;99.90
56336;DHT22;42241;53.510;10.170;2022-11-11T06:20:37;10.80;99.90
56336;DHT22;42241;53.510;10.170;2022-11-11T06:23:03;10.80;99.90
56336;DHT22;42241;53.510;10.170;2022-11-11T06:25:29;10.90;99.90
56336;DHT22;42241;53.510;10.170;2022-11-11T06:28:16;10.80;99.90
56336;DHT22;42241;53.510;10.170;2022-11-11T06:30:42;10.80;99.90
56336;DHT22;42241;53.510;10.170;2022-11-11T06:33:08;10.80;99.90
56336;DHT22;42241;53.510;10.170;2022-11-11T06:35:34;10.80;99.90
56336;DHT22;42241;53.510;10.170;2022-11-11T06:38:00;10.80;99.90
56336;DHT22;42241;53.510;10.170;2022-11-11T06:40:26;10.80;99.90
56336;DHT22;42241;53.510;10.170;2022-11-11T06:42:53;10.80;99.90
56336;DHT22;42241;53.510;10.170;2022-11-11T06:45:18;10.80;99.90
56336;DHT22;42241;53.510;10.170;2022-11-11T06:47:44;10.80;99.90
56336;DHT22;42241;53.510;10.170;2022-11-11T06:50:09;10.80;99.90
56336;DHT22;42241;53.510;10.170;2022-11-11T06:52:35;10.80;99.90
56336;DHT22;42241;53.510;10.170;2022-11-11T06:55:00;10.80;99.90
56336;DHT22;42241;53.510;10.170;2022-11-11T06:57:26;10.80;99.90
56336;DHT22;42241;53.510;10.170;2022-11-11T06:59:51;10.80;99.90
56336;DHT22;42241;53.510;10.170;2022-11-11T07:02:17;10.80;99.90
56336;DHT22;42241;53.510;10.170;2022-11-11T07:04:43;10.70;99.90
56336;DHT22;42241;53.510;10.170;2022-11-11T07:07:12;10.70;99.90
56336;DHT22;42241;53.510;10.170;2022-11-11T07:12:41;10.80;99.90
56336;DHT22;42241;53.510;10.170;2022-11-11T07:15:06;10.80;99.90
56336;DHT22;42241;53.510;10.170;2022-11-11T07:17:32;10.80;99.90
56336;DHT22;42241;53.510;10.170;2022-11-11T07:19:58;10.80;99.90
56336;DHT22;42241;53.510;10.170;2022-11-11T07:22:25;10.80;99.90
56336;DHT22;42241;53.510;10.170;2022-11-11T07:24:50;10.80;99.90
56336;DHT22;42241;53.510;10.170;2022-11-11T07:27:16;10.80;99.90
56336;DHT22;42241;53.510;10.170;2022-11-11T07:29:42;10.80;99.90
56336;DHT22;42241;53.510;10.170;2022-11-11T07:32:07;10.80;99.90
56336;DHT22;42241;53.510;10.170;2022-11-11T07:34:33;10.80;99.90
56336;DHT22;42241;53.510;10.170;2022-11-11T07:36:58;10.80;99.90
56336;DHT22;42241;53.510;10.170;2022-11-11T07:39:24;10.80;99.90
56336;DHT22;42241;53.510;10.170;2022-11-11T07:41:49;10.90;99.90
56336;DHT22;42241;53.510;10.170;2022-11-11T07:44:15;10.90;99.90
56336;DHT22;42241;53.510;10.170;2022-11-11T07:46:40;10.80;99.90
56336;DHT22;42241;53.510;10.170;2022-11-11T07:49:06;10.80;99.90
56336;DHT22;42241;53.510;10.170;2022-11-11T07:51:31;10.80;99.90
56336;DHT22;42241;53.510;10.170;2022-11-11T07:53:57;10.80;99.90
56336;DHT22;42241;53.510;10.170;2022-11-11T07:56:22;10.80;99.90
56336;DHT22;42241;53.510;10.170;2022-11-11T07:58:48;10.90;99.90
56336;DHT22;42241;53.510;10.170;2022-11-11T08:01:14;10.90;99.90
56336;DHT22;42241;53.510;10.170;2022-11-11T08:03:39;10.90;99.90
56336;DHT22;42241;53.510;10.170;2022-11-11T08:06:20;10.90;99.90
56336;DHT22;42241;53.510;10.170;2022-11-11T08:08:46;10.90;99.90
56336;DHT22;42241;53.510;10.170;2022-11-11T08:11:13;10.80;99.90
56336;DHT22;42241;53.510;10.170;2022-11-11T08:13:39;10.80;99.90
56336;DHT22;42241;53.510;10.170;2022-11-11T08:16:06;10.90;99.90
56336;DHT22;42241;53.510;10.170;2022-11-11T08:18:37;10.80;99.90
56336;DHT22;42241;53.510;10.170;2022-11-11T08:21:03;10.90;99.90
56336;DHT22;42241;53.510;10.170;2022-11-11T08:23:30;10.90;99.90
56336;DHT22;42241;53.510;10.170;2022-11-11T08:25:59;10.90;99.90
56336;DHT22;42241;53.510;10.170;2022-11-11T08:28:25;11.00;99.90
56336;DHT22;42241;53.510;10.170;2022-11-11T08:30:51;11.00;99.90
56336;DHT22;42241;53.510;10.170;2022-11-11T08:33:16;11.00;99.90
56336;DHT22;42241;53.510;10.170;2022-11-11T08:35:42;11.10;99.90
56336;DHT22;42241;53.510;10.170;2022-11-11T08:38:07;11.10;99.90
56336;DHT22;42241;53.510;10.170;2022-11-11T08:40:33;11.00;99.90
56336;DHT22;42241;53.510;10.170;2022-11-11T08:42:58;11.10;99.90
56336;DHT22;42241;53.510;10.170;2022-11-11T08:45:24;11.10;99.90
56336;DHT22;42241;53.510;10.170;2022-11-11T08:47:50;11.20;99.90
56336;DHT22;42241;53.510;10.170;2022-11-11T08:50:16;11.20;99.90
56336;DHT22;42241;53.510;10.170;2022-11-11T08:52:45;11.20;99.90
56336;DHT22;42241;53.510;10.170;2022-11-11T08:55:11;11.20;99.90
56336;DHT22;42241;53.510;10.170;2022-11-11T08:57:38;11.20;99.90
56336;DHT22;42241;53.510;10.170;2022-11-11T09:00:04;11.20;99.90
56336;DHT22;42241;53.510;10.170;2022-11-11T09:02:30;11.30;99.90
56336;DHT22;42241;53.510;10.170;2022-11-11T09:04:55;11.40;99.90
56336;DHT22;42241;53.510;10.170;2022-11-11T09:07:21;11.30;99.90
56336;DHT22;42241;53.510;10.170;2022-11-11T09:09:48;11.30;99.90
56336;DHT22;42241;53.510;10.170;2022-11-11T09:12:13;11.40;99.90
56336;DHT22;42241;53.510;10.170;2022-11-11T09:14:39;11.40;99.90
56336;DHT22;42241;53.510;10.170;2022-11-11T09:17:05;11.40;99.90
56336;DHT22;42241;53.510;10.170;2022-11-11T09:19:30;11.50;99.90
56336;DHT22;42241;53.510;10.170;2022-11-11T09:21:56;11.50;99.90
56336;DHT22;42241;53.510;10.170;2022-11-11T09:24:21;11.40;99.90
56336;DHT22;42241;53.510;10.170;2022-11-11T09:26:48;11.40;99.90
56336;DHT22;42241;53.510;10.170;2022-11-11T09:29:13;11.30;99.90
56336;DHT22;42241;53.510;10.170;2022-11-11T09:31:39;11.40;99.90
56336;DHT22;42241;53.510;10.170;2022-11-11T09:34:04;11.40;99.90
56336;DHT22;42241;53.510;10.170;2022-11-11T09:36:31;11.50;99.90
56336;DHT22;42241;53.510;10.170;2022-11-11T09:38:57;11.40;99.90
56336;DHT22;42241;53.510;10.170;2022-11-11T09:43:52;11.40;99.90
56336;DHT22;42241;53.510;10.170;2022-11-11T09:51:21;11.40;99.90
56336;DHT22;42241;53.510;10.170;2022-11-11T09:53:55;11.50;99.90
56336;DHT22;42241;53.510;10.170;2022-11-11T09:56:23;11.50;99.90
56336;DHT22;42241;53.510;10.170;2022-11-11T09:58:50;11.40;99.90
56336;DHT22;42241;53.510;10.170;2022-11-11T10:01:18;11.40;99.90
56336;DHT22;42241;53.510;10.170;2022-11-11T10:03:46;11.40;99.90
56336;DHT22;42241;53.510;10.170;2022-11-11T10:06:31;11.40;99.90
56336;DHT22;42241;53.510;10.170;2022-11-11T10:08:59;11.40;99.90
56336;DHT22;42241;53.510;10.170;2022-11-11T10:11:51;11.40;99.90
56336;DHT22;42241;53.510;10.170;2022-11-11T10:14:12;11.40;99.90
56336;DHT22;42241;53.510;10.170;2022-11-11T10:16:52;11.50;99.90
56336;DHT22;42241;53.510;10.170;2022-11-11T10:19:22;11.50;99.90
56336;DHT22;42241;53.510;10.170;2022-11-11T10:21:52;11.50;99.90
56336;DHT22;42241;53.510;10.170;2022-11-11T10:27:18;11.50;99.90
56336;DHT22;42241;53.510;10.170;2022-11-11T10:29:44;11.60;99.90
56336;DHT22;42241;53.510;10.170;2022-11-11T10:37:42;11.80;99.90
56336;DHT22;42241;53.510;10.170;2022-11-11T10:42:36;11.60;99.90
56336;DHT22;42241;53.510;10.170;2022-11-11T10:45:01;11.60;99.90
56336;DHT22;42241;53.510;10.170;2022-11-11T10:50:27;11.60;99.90
56336;DHT22;42241;53.510;10.170;2022-11-11T10:52:58;11.70;99.90
56336;DHT22;42241;53.510;10.170;2022-11-11T10:55:30;11.80;99.90
56336;DHT22;42241;53.510;10.170;2022-11-11T10:58:04;11.70;99.90
56336;DHT22;42241;53.510;10.170;2022-11-11T11:00:31;11.70;99.90
56336;DHT22;42241;53.510;10.170;2022-11-11T11:03:11;11.80;99.90
56336;DHT22;42241;53.510;10.170;2022-11-11T11:05:46;11.80;99.90
56336;DHT22;42241;53.510;10.170;2022-11-11T11:08:18;11.70;99.90
56336;DHT22;42241;53.510;10.170;2022-11-11T11:10:46;11.70;99.90
56336;DHT22;42241;53.510;10.170;2022-11-11T11:15:46;11.60;99.90
56336;DHT22;42241;53.510;10.170;2022-11-11T11:18:14;11.50;99.90
56336;DHT22;42241;53.510;10.170;2022-11-11T11:21:02;11.50;99.90
56336;DHT22;42241;53.510;10.170;2022-11-11T11:26:01;11.70;99.90
56336;DHT22;42241;53.510;10.170;2022-11-11T11:28:28;11.80;99.90
56336;DHT22;42241;53.510;10.170;2022-11-11T11:31:04;11.80;99.90
56336;DHT22;42241;53.510;10.170;2022-11-11T11:33:49;11.70;99.90
56336;DHT22;42241;53.510;10.170;2022-11-11T11:36:15;11.70;99.90
56336;DHT22;42241;53.510;10.170;2022-11-11T11:38:43;11.70;99.90
56336;DHT22;42241;53.510;10.170;2022-11-11T11:41:13;11.70;99.90
56336;DHT22;42241;53.510;10.170;2022-11-11T11:43:39;11.70;99.90
56336;DHT22;42241;53.510;10.170;2022-11-11T11:46:25;11.70;99.90
56336;DHT22;42241;53.510;10.170;2022-11-11T12:05:26;11.70;99.90
56336;DHT22;42241;53.510;10.170;2022-11-11T12:10:48;11.70;99.90
56336;DHT22;42241;53.510;10.170;2022-11-11T12:28:33;11.60;99.90
56336;DHT22;42241;53.510;10.170;2022-11-11T12:33:54;11.70;99.90
56336;DHT22;42241;53.510;10.170;2022-11-11T12:36:28;11.60;99.90
56336;DHT22;42241;53.510;10.170;2022-11-11T12:44:10;11.70;99.90
56336;DHT22;42241;53.510;10.170;2022-11-11T12:51:43;11.80;99.90
56336;DHT22;42241;53.510;10.170;2022-11-11T12:56:48;11.90;99.90
56336;DHT22;42241;53.510;10.170;2022-11-11T12:59:19;11.90;99.90
56336;DHT22;42241;53.510;10.170;2022-11-11T13:07:13;11.90;99.90
56336;DHT22;42241;53.510;10.170;2022-11-11T13:12:37;11.90;99.90
56336;DHT22;42241;53.510;10.170;2022-11-11T13:15:17;12.00;99.90
56336;DHT22;42241;53.510;10.170;2022-11-11T13:17:47;11.90;99.90
56336;DHT22;42241;53.510;10.170;2022-11-11T13:22:53;12.00;99.90
56336;DHT22;42241;53.510;10.170;2022-11-11T13:25:23;11.90;99.90
56336;DHT22;42241;53.510;10.170;2022-11-11T13:27:50;11.90;99.90
56336;DHT22;42241;53.510;10.170;2022-11-11T13:32:49;11.90;99.90
56336;DHT22;42241;53.510;10.170;2022-11-11T13:35:30;11.90;99.90
56336;DHT22;42241;53.510;10.170;2022-11-11T13:37:57;11.90;99.90
56336;DHT22;42241;53.510;10.170;2022-11-11T13:40:25;11.80;99.90
56336;DHT22;42241;53.510;10.170;2022-11-11T13:42:55;11.80;99.90
56336;DHT22;42241;53.510;10.170;2022-11-11T13:45:28;11.90;99.90
56336;DHT22;42241;53.510;10.170;2022-11-11T13:47:57;11.90;99.90
56336;DHT22;42241;53.510;10.170;2022-11-11T13:50:35;11.80;99.90
56336;DHT22;42241;53.510;10.170;2022-11-11T13:53:03;11.80;99.90
56336;DHT22;42241;53.510;10.170;2022-11-11T13:57:54;11.80;99.90
56336;DHT22;42241;53.510;10.170;2022-11-11T14:02:46;11.90;99.90
56336;DHT22;42241;53.510;10.170;2022-11-11T14:12:43;12.00;99.90
56336;DHT22;42241;53.510;10.170;2022-11-11T14:17:53;12.00;99.90
56336;DHT22;42241;53.510;10.170;2022-11-11T14:20:40;12.00;99.90
56336;DHT22;42241;53.510;10.170;2022-11-11T14:25:39;12.20;99.90
56336;DHT22;42241;53.510;10.170;2022-11-11T14:28:18;12.20;99.90
56336;DHT22;42241;53.510;10.170;2022-11-11T14:30:47;12.10;99.90
56336;DHT22;42241;53.510;10.170;2022-11-11T14:41:49;12.20;99.90
56336;DHT22;42241;53.510;10.170;2022-11-11T14:57:29;12.20;99.90
56336;DHT22;42241;53.510;10.170;2022-11-11T14:59:55;12.20;99.90
56336;DHT22;42241;53.510;10.170;2022-11-11T15:02:24;12.20;99.90
56336;DHT22;42241;53.510;10.170;2022-11-11T15:04:50;12.20;99.90
56336;DHT22;42241;53.510;10.170;2022-11-11T15:10:02;12.20;99.90
56336;DHT22;42241;53.510;10.170;2022-11-11T15:17:34;12.20;99.90
56336;DHT22;42241;53.510;10.170;2022-11-11T15:22:56;12.10;99.90
56336;DHT22;42241;53.510;10.170;2022-11-11T15:33:41;12.00;99.90
56336;DHT22;42241;53.510;10.170;2022-11-11T15:36:09;11.90;99.90
56336;DHT22;42241;53.510;10.170;2022-11-11T15:38:37;11.90;99.90
56336;DHT22;42241;53.510;10.170;2022-11-11T15:41:03;11.90;99.90
56336;DHT22;42241;53.510;10.170;2022-11-11T15:43:29;11.90;99.90
56336;DHT22;42241;53.510;10.170;2022-11-11T15:45:59;11.90;99.90
56336;DHT22;42241;53.510;10.170;2022-11-11T15:48:43;11.90;99.90
56336;DHT22;42241;53.510;10.170;2022-11-11T15:51:16;11.90;99.90
56336;DHT22;42241;53.510;10.170;2022-11-11T15:53:42;11.80;99.90
56336;DHT22;42241;53.510;10.170;2022-11-11T15:56:07;11.80;99.90
56336;DHT22;42241;53.510;10.170;2022-11-11T15:58:33;11.80;99.90
56336;DHT22;42241;53.510;10.170;2022-11-11T16:01:09;11.70;99.90
56336;DHT22;42241;53.510;10.170;2022-11-11T16:03:39;11.60;99.90
56336;DHT22;42241;53.510;10.170;2022-11-11T16:06:11;11.60;99.90
56336;DHT22;42241;53.510;10.170;2022-11-11T16:08:41;11.60;99.90
56336;DHT22;42241;53.510;10.170;2022-11-11T16:11:13;11.50;99.90
56336;DHT22;42241;53.510;10.170;2022-11-11T16:13:41;11.50;99.90
56336;DHT22;42241;53.510;10.170;2022-11-11T16:16:19;11.50;99.90
56336;DHT22;42241;53.510;10.170;2022-11-11T16:18:48;11.50;99.90
56336;DHT22;42241;53.510;10.170;2022-11-11T16:21:16;11.50;99.90
56336;DHT22;42241;53.510;10.170;2022-11-11T16:23:43;11.50;99.90
56336;DHT22;42241;53.510;10.170;2022-11-11T16:26:09;11.50;99.90
56336;DHT22;42241;53.510;10.170;2022-11-11T16:28:37;11.50;99.90
56336;DHT22;42241;53.510;10.170;2022-11-11T16:33:47;11.50;99.90
56336;DHT22;42241;53.510;10.170;2022-11-11T16:36:13;11.50;99.90
56336;DHT22;42241;53.510;10.170;2022-11-11T16:38:38;11.50;99.90
56336;DHT22;42241;53.510;10.170;2022-11-11T16:41:25;11.50;99.90
56336;DHT22;42241;53.510;10.170;2022-11-11T16:43:51;11.50;99.90
56336;DHT22;42241;53.510;10.170;2022-11-11T16:48:58;11.50;99.90
56336;DHT22;42241;53.510;10.170;2022-11-11T16:51:43;11.50;99.90
56336;DHT22;42241;53.510;10.170;2022-11-11T16:57:14;11.50;99.90
56336;DHT22;42241;53.510;10.170;2022-11-11T16:59:42;11.50;99.90
56336;DHT22;42241;53.510;10.170;2022-11-11T17:02:19;11.50;99.90
56336;DHT22;42241;53.510;10.170;2022-11-11T17:04:49;11.50;99.90
56336;DHT22;42241;53.510;10.170;2022-11-11T17:07:28;11.40;99.90
56336;DHT22;42241;53.510;10.170;2022-11-11T17:10:08;11.40;99.90
56336;DHT22;42241;53.510;10.170;2022-11-11T17:12:35;11.50;99.90
56336;DHT22;42241;53.510;10.170;2022-11-11T17:15:05;11.50;99.90
56336;DHT22;42241;53.510;10.170;2022-11-11T17:17:33;11.50;99.90
56336;DHT22;42241;53.510;10.170;2022-11-11T17:19:59;11.50;99.90
56336;DHT22;42241;53.510;10.170;2022-11-11T17:22:26;11.40;99.90
56336;DHT22;42241;53.510;10.170;2022-11-11T17:24:53;11.50;99.90
56336;DHT22;42241;53.510;10.170;2022-11-11T17:27:19;11.50;99.90
56336;DHT22;42241;53.510;10.170;2022-11-11T17:29:47;11.40;99.90
56336;DHT22;42241;53.510;10.170;2022-11-11T17:32:12;11.40;99.90
56336;DHT22;42241;53.510;10.170;2022-11-11T17:34:40;11.40;99.90
56336;DHT22;42241;53.510;10.170;2022-11-11T17:37:06;11.40;99.90
56336;DHT22;42241;53.510;10.170;2022-11-11T17:39:34;11.40;99.90
56336;DHT22;42241;53.510;10.170;2022-11-11T17:41:59;11.40;99.90
56336;DHT22;42241;53.510;10.170;2022-11-11T17:44:25;11.40;99.90
56336;DHT22;42241;53.510;10.170;2022-11-11T17:46:50;11.30;99.90
56336;DHT22;42241;53.510;10.170;2022-11-11T17:49:16;11.30;99.90
56336;DHT22;42241;53.510;10.170;2022-11-11T17:51:42;11.30;99.90
56336;DHT22;42241;53.510;10.170;2022-11-11T17:54:07;11.30;99.90
56336;DHT22;42241;53.510;10.170;2022-11-11T17:56:34;11.20;99.90
56336;DHT22;42241;53.510;10.170;2022-11-11T17:59:02;11.20;99.90
56336;DHT22;42241;53.510;10.170;2022-11-11T18:01:28;11.20;99.90
56336;DHT22;42241;53.510;10.170;2022-11-11T18:03:54;11.10;99.90
56336;DHT22;42241;53.510;10.170;2022-11-11T18:06:20;11.10;99.90
56336;DHT22;42241;53.510;10.170;2022-11-11T18:08:46;11.10;99.90
56336;DHT22;42241;53.510;10.170;2022-11-11T18:11:11;11.10;99.90